Schneider, Indiana
Current Conditions -  °F | °C
As of 12:55 AM on Monday 24 Nov 2014 (Local Time) from KRZL Reporting Station
Moderate Rain Moderate Rain  
Wind Chill: 50°   Ceiling: 400
Heat Index: 50°   Visibility: 7mi
Dew Point: 50°   Wind: 16mph
Humidity: 100%   Direction: 230°SW
Pressure: 29.13"   Gusts: 21mph
Location:  41.19°N, 87.45°W
Report Text: KRZL 240655Z AUTO 23014G18KT 7SM RA OVC004 10/10 A2913 RMK AO2 P0006 LTG DSNT SW
Loading
Personal Weather Stations






























Interactive Weather Map New forecast layout! Learn more

10-Day Weather Forecast

Advertisements
Track Severe Weather on mobile